Time;durP1;ratioP1;P1;durP2;ratioP2;P2;SDS_P1;SDS_P2;PMS_P1;PMS_P2;Temp;Humidity;BMP_temperature;BMP_pressure;BME280_temperature;BME280_humidity;BME280_pressure;Samples;Min_cycle;Max_cycle;Signal;HPM_P1;HPM_P2
2021/12/14 00:01:18;;;;;;;5.72;3.65;;;7.10;99.90;;;;;;5089547;28;20298;-72
2021/12/14 00:03:48;;;;;;;4.85;3.33;;;7.10;99.90;;;;;;5089331;28;20234;-69
2021/12/14 00:06:17;;;;;;;5.15;3.42;;;7.10;99.90;;;;;;5089343;28;20167;-71
2021/12/14 00:08:52;;;;;;;3.17;2.63;;;7.10;99.90;;;;;;5089508;28;20208;-71
2021/12/14 00:11:50;;;;;;;3.90;2.95;;;7.10;99.90;;;;;;5089370;28;20275;-70
2021/12/14 00:17:11;;;;;;;8.05;4.28;;;7.00;99.90;;;;;;5089035;28;20228;-68
2021/12/14 00:19:37;;;;;;;4.60;3.38;;;7.10;99.90;;;;;;5089263;28;20164;-72
2021/12/14 00:22:18;;;;;;;5.45;3.50;;;7.00;99.90;;;;;;5071518;28;20198;-71
2021/12/14 00:24:44;;;;;;;4.70;3.03;;;7.10;99.90;;;;;;5079942;28;20192;-68
2021/12/14 00:27:11;;;;;;;4.57;3.47;;;7.00;99.90;;;;;;5051267;28;20177;-72
2021/12/14 00:29:44;;;;;;;4.03;3.50;;;7.00;99.90;;;;;;5068154;28;20502;-72
2021/12/14 00:32:16;;;;;;;4.40;3.55;;;7.00;99.90;;;;;;5068782;28;20198;-71
2021/12/14 00:34:43;;;;;;;5.40;4.90;;;6.90;99.90;;;;;;5068772;28;20271;-68
2021/12/14 00:37:17;;;;;;;5.55;4.00;;;7.00;99.90;;;;;;5068912;28;20165;-72
2021/12/14 00:39:44;;;;;;;6.32;3.85;;;7.00;99.90;;;;;;5071489;28;20254;-67
2021/12/14 00:42:11;;;;;;;7.68;5.57;;;7.10;99.90;;;;;;5072369;28;20180;-71
2021/12/14 00:44:37;;;;;;;5.85;4.97;;;7.00;99.90;;;;;;5068634;28;20201;-68
2021/12/14 00:47:03;;;;;;;3.70;3.40;;;7.10;99.90;;;;;;5068360;28;20177;-71
2021/12/14 00:49:30;;;;;;;6.63;4.60;;;7.00;99.90;;;;;;5051115;28;20635;-71
2021/12/14 00:51:56;;;;;;;5.18;4.35;;;7.00;99.90;;;;;;5068187;28;20173;-69
2021/12/14 00:54:23;;;;;;;5.77;4.63;;;7.10;99.90;;;;;;5068462;28;20233;-72
2021/12/14 00:56:50;;;;;;;4.32;3.63;;;7.00;99.90;;;;;;5068219;28;20231;-72
2021/12/14 00:59:16;;;;;;;3.95;3.55;;;7.10;99.90;;;;;;5068430;28;20191;-73
2021/12/14 01:02:01;;;;;;;6.00;5.10;;;7.00;99.90;;;;;;5068294;28;20173;-70
2021/12/14 01:04:41;;;;;;;6.25;4.95;;;7.00;99.90;;;;;;5068147;28;20215;-71
2021/12/14 01:07:09;;;;;;;5.03;4.18;;;7.00;99.90;;;;;;5067828;28;20172;-70
2021/12/14 01:09:39;;;;;;;5.50;4.90;;;7.00;99.90;;;;;;5068229;28;20168;-72
2021/12/14 01:12:12;;;;;;;4.05;3.60;;;6.90;99.90;;;;;;5068057;28;20191;-71
2021/12/14 01:15:10;;;;;;;4.68;4.05;;;6.90;99.90;;;;;;5068096;28;20193;-70
2021/12/14 01:17:54;;;;;;;10.52;4.93;;;7.00;99.90;;;;;;5067804;28;20194;-72
2021/12/14 01:20:21;;;;;;;3.10;2.80;;;7.00;99.90;;;;;;5050422;28;20171;-70
2021/12/14 01:22:58;;;;;;;6.00;5.22;;;7.00;99.90;;;;;;5067795;28;20187;-72
2021/12/14 01:25:31;;;;;;;4.78;3.70;;;7.00;99.90;;;;;;5082662;28;20171;-71
2021/12/14 01:28:05;;;;;;;5.57;4.93;;;7.00;99.90;;;;;;5087623;28;20187;-70
2021/12/14 01:30:35;;;;;;;6.03;4.78;;;6.90;99.90;;;;;;5087935;28;20194;-70
2021/12/14 01:33:05;;;;;;;6.30;4.43;;;6.90;99.90;;;;;;5087501;28;20200;-70
2021/12/14 01:35:38;;;;;;;3.13;2.75;;;6.90;99.90;;;;;;5087739;27;20229;-72
2021/12/14 01:39:09;;;;;;;3.50;3.15;;;6.90;99.90;;;;;;5087359;28;20167;-70
2021/12/14 01:40:58;;;;;;;7.35;3.95;;;6.90;99.90;;;;;;5076722;28;20198;-71
2021/12/14 01:43:36;;;;;;;4.65;3.60;;;6.80;99.90;;;;;;5069729;28;20183;-71
2021/12/14 01:46:09;;;;;;;6.10;4.35;;;6.80;99.90;;;;;;5087526;28;20167;-73
2021/12/14 01:48:35;;;;;;;3.65;2.80;;;6.80;99.90;;;;;;5087364;28;20171;-71
2021/12/14 01:51:06;;;;;;;3.47;3.17;;;6.80;99.90;;;;;;5087417;28;20225;-73
2021/12/14 01:53:32;;;;;;;5.05;4.47;;;6.80;99.90;;;;;;5087203;28;20462;-70
2021/12/14 01:56:04;;;;;;;5.45;3.45;;;6.70;99.90;;;;;;5087300;28;20183;-74
2021/12/14 01:58:38;;;;;;;7.82;4.25;;;6.80;99.90;;;;;;5086960;28;20180;-70
2021/12/14 02:01:12;;;;;;;4.60;3.10;;;6.70;99.90;;;;;;5087254;28;20250;-72
2021/12/14 02:03:44;;;;;;;6.82;4.60;;;6.70;99.90;;;;;;5087102;28;20211;-72
2021/12/14 02:06:14;;;;;;;4.32;3.25;;;6.70;99.90;;;;;;5087081;28;20171;-69
2021/12/14 02:08:40;;;;;;;5.40;3.80;;;6.70;99.90;;;;;;5087017;28;20248;-72
2021/12/14 02:11:08;;;;;;;5.73;4.47;;;6.80;99.90;;;;;;5069536;28;20166;-74
2021/12/14 02:13:39;;;;;;;4.45;3.60;;;6.80;99.90;;;;;;5087015;28;20198;-70
2021/12/14 02:16:06;;;;;;;9.10;4.18;;;6.80;99.90;;;;;;5087148;28;20273;-73
2021/12/14 02:18:32;;;;;;;5.78;4.32;;;6.80;99.90;;;;;;5086787;28;20264;-70
2021/12/14 02:21:09;;;;;;;4.50;3.40;;;6.70;99.90;;;;;;5087070;28;20163;-71
2021/12/14 02:23:40;;;;;;;6.95;5.45;;;6.70;99.90;;;;;;5086948;28;20662;-71
2021/12/14 02:26:08;;;;;;;5.95;4.28;;;6.60;99.90;;;;;;5067145;28;20159;-74
2021/12/14 02:28:34;;;;;;;4.70;4.10;;;6.60;99.90;;;;;;5066671;28;20176;-71
2021/12/14 02:31:01;;;;;;;4.03;3.60;;;6.70;99.90;;;;;;5066770;28;20175;-73
2021/12/14 02:33:38;;;;;;;3.20;2.90;;;6.70;99.90;;;;;;5049009;28;20226;-70
2021/12/14 02:36:09;;;;;;;3.88;3.33;;;6.70;99.90;;;;;;5067142;28;20307;-71
2021/12/14 02:38:41;;;;;;;4.13;3.72;;;6.70;99.90;;;;;;5066542;28;20162;-72
2021/12/14 02:41:08;;;;;;;7.10;4.60;;;6.70;99.90;;;;;;5066836;28;20196;-72
2021/12/14 02:43:41;;;;;;;5.85;4.43;;;6.70;99.90;;;;;;5066568;28;20195;-72
2021/12/14 02:46:31;;;;;;;10.32;5.05;;;6.60;99.90;;;;;;5066636;28;20540;-73
2021/12/14 02:49:03;;;;;;;4.75;3.42;;;6.60;99.90;;;;;;5066723;28;20285;-74
2021/12/14 02:51:39;;;;;;;6.72;3.70;;;6.60;99.90;;;;;;5066569;28;20329;-69
2021/12/14 02:54:18;;;;;;;10.55;4.07;;;6.60;99.90;;;;;;5070450;28;20418;-73
2021/12/14 02:56:49;;;;;;;5.60;4.60;;;6.50;99.90;;;;;;5070419;28;20332;-71
2021/12/14 02:59:19;;;;;;;7.93;4.57;;;6.50;99.90;;;;;;5070557;28;20208;-71
2021/12/14 03:01:47;;;;;;;6.55;3.75;;;6.50;99.90;;;;;;5070713;28;20184;-71
2021/12/14 03:04:13;;;;;;;7.13;3.90;;;6.60;99.90;;;;;;5070298;28;20315;-73
2021/12/14 03:06:47;;;;;;;8.63;5.38;;;6.50;99.90;;;;;;5070168;28;20199;-71
2021/12/14 03:09:34;;;;;;;5.22;4.68;;;6.50;99.90;;;;;;5070521;28;20165;-71
2021/12/14 03:12:20;;;;;;;4.25;3.67;;;6.50;99.90;;;;;;5070353;28;20301;-72
2021/12/14 03:14:59;;;;;;;3.95;3.47;;;6.40;99.90;;;;;;5070347;28;20185;-71
2021/12/14 03:17:25;;;;;;;4.25;2.72;;;6.40;99.90;;;;;;5070114;28;20313;-72
2021/12/14 03:19:57;;;;;;;6.53;4.75;;;6.40;99.90;;;;;;5070373;28;20236;-70
2021/12/14 03:22:32;;;;;;;7.18;4.22;;;6.40;99.90;;;;;;5070299;28;20176;-72
2021/12/14 03:24:59;;;;;;;5.65;3.70;;;6.40;99.90;;;;;;5081324;28;20211;-70
2021/12/14 03:27:26;;;;;;;7.35;5.03;;;6.40;99.90;;;;;;5089898;28;20182;-71
2021/12/14 03:29:52;;;;;;;10.15;4.68;;;6.40;99.90;;;;;;5090028;28;20174;-71
2021/12/14 03:32:18;;;;;;;7.38;4.68;;;6.40;99.90;;;;;;5089990;28;20247;-71
2021/12/14 03:34:45;;;;;;;5.57;3.40;;;6.40;99.90;;;;;;5089928;28;20207;-69
2021/12/14 03:37:22;;;;;;;10.15;4.50;;;6.40;99.90;;;;;;5089616;28;20565;-72
2021/12/14 03:39:59;;;;;;;5.00;4.25;;;6.30;99.90;;;;;;5089981;28;20183;-69
2021/12/14 03:42:37;;;;;;;5.90;4.45;;;6.30;99.90;;;;;;5089958;28;20228;-73
2021/12/14 03:45:10;;;;;;;6.40;3.95;;;6.30;99.90;;;;;;5089811;28;20255;-70
2021/12/14 03:47:41;;;;;;;4.32;3.17;;;6.30;99.90;;;;;;5089583;28;20211;-69
2021/12/14 03:50:13;;;;;;;4.30;3.17;;;6.20;99.90;;;;;;5089739;28;20393;-69
2021/12/14 03:52:40;;;;;;;4.40;3.38;;;6.20;99.90;;;;;;5089585;28;20542;-68
2021/12/14 03:55:20;;;;;;;4.25;3.67;;;6.30;99.90;;;;;;5089553;28;20231;-70
2021/12/14 03:57:46;;;;;;;8.32;3.80;;;6.30;99.90;;;;;;5089218;28;20168;-68
2021/12/14 04:00:18;;;;;;;9.55;3.60;;;6.20;99.90;;;;;;5089534;28;20232;-70
2021/12/14 04:02:44;;;;;;;7.97;3.65;;;6.20;99.90;;;;;;5089354;28;20189;-69
2021/12/14 04:05:12;;;;;;;7.35;3.60;;;6.20;99.90;;;;;;5088165;28;20167;-69
2021/12/14 04:07:41;;;;;;;6.97;4.30;;;6.20;99.90;;;;;;5089189;28;20251;-71
2021/12/14 04:10:31;;;;;;;5.97;4.05;;;6.20;99.90;;;;;;5089282;28;20221;-70
2021/12/14 04:12:58;;;;;;;7.70;4.55;;;6.20;99.90;;;;;;5089214;28;20277;-69
2021/12/14 04:15:24;;;;;;;2.80;2.58;;;6.20;99.90;;;;;;5089316;28;20168;-70
2021/12/14 04:17:50;;;;;;;7.63;3.97;;;6.20;99.90;;;;;;5088962;28;20231;-68
2021/12/14 04:20:23;;;;;;;5.80;3.45;;;6.10;99.90;;;;;;5089190;28;20161;-69
2021/12/14 04:22:50;;;;;;;6.95;3.47;;;6.10;99.90;;;;;;5089096;28;20176;-72
2021/12/14 04:25:23;;;;;;;8.90;5.55;;;6.10;99.90;;;;;;5057812;28;20186;-69
2021/12/14 04:27:51;;;;;;;3.20;2.88;;;6.10;99.90;;;;;;5068768;28;20187;-71
2021/12/14 04:30:19;;;;;;;5.55;3.53;;;6.20;99.90;;;;;;5068851;28;20173;-71
2021/12/14 04:32:51;;;;;;;3.67;3.38;;;6.20;99.90;;;;;;5068671;28;20210;-69
2021/12/14 04:35:18;;;;;;;5.05;3.80;;;6.30;99.90;;;;;;5069488;28;20375;-70
2021/12/14 04:37:54;;;;;;;4.63;3.63;;;6.20;99.90;;;;;;5068571;28;20176;-70
2021/12/14 04:51:52;;;;;;;6.28;3.35;;;6.20;99.90;;;;;;5051355;28;20174;-70
2021/12/14 04:51:58;;;;;;;2.83;1.80;;;6.10;99.90;;;;;;5068498;28;20171;-69
2021/12/14 04:54:26;;;;;;;6.22;3.55;;;6.10;99.90;;;;;;5068417;28;20370;-70
2021/12/14 04:56:52;;;;;;;3.70;2.67;;;6.10;99.90;;;;;;5068125;28;20171;-70
2021/12/14 04:59:20;;;;;;;6.65;3.45;;;6.00;99.90;;;;;;5068244;28;20372;-71
2021/12/14 05:01:47;;;;;;;6.47;4.03;;;6.00;99.90;;;;;;5068262;28;20241;-69
2021/12/14 05:04:18;;;;;;;4.53;3.35;;;6.00;99.90;;;;;;5050598;28;20290;-71
2021/12/14 05:06:49;;;;;;;15.27;4.82;;;5.90;99.90;;;;;;5067966;28;20185;-70
2021/12/14 05:11:59;;;;;;;7.65;3.13;;;5.90;99.90;;;;;;5068129;28;20397;-70
2021/12/14 05:14:28;;;;;;;5.00;3.58;;;5.90;99.90;;;;;;5067993;28;20202;-70
2021/12/14 05:17:00;;;;;;;5.70;2.88;;;5.90;99.90;;;;;;5067543;28;20191;-69
2021/12/14 05:19:27;;;;;;;2.50;2.30;;;5.90;99.90;;;;;;5068140;28;20168;-70
2021/12/14 05:22:04;;;;;;;7.95;4.10;;;5.90;99.90;;;;;;5067945;28;20372;-70
2021/12/14 05:24:30;;;;;;;2.72;2.53;;;5.90;99.90;;;;;;5076332;28;20208;-69
2021/12/14 05:27:03;;;;;;;3.05;2.63;;;5.90;99.90;;;;;;5067588;28;20154;-70
2021/12/14 05:29:30;;;;;;;4.72;2.67;;;5.90;99.90;;;;;;5067857;28;20170;-69
2021/12/14 05:31:58;;;;;;;4.75;3.30;;;5.90;99.90;;;;;;5070212;28;20181;-71
2021/12/14 05:34:26;;;;;;;2.88;2.38;;;5.80;99.90;;;;;;5067336;28;20204;-72
2021/12/14 05:36:52;;;;;;;3.20;2.75;;;5.80;99.90;;;;;;5066984;28;20189;-68
2021/12/14 05:44:40;;;;;;;2.58;2.17;;;5.80;99.90;;;;;;5067633;28;20185;-70
2021/12/14 05:47:10;;;;;;;6.10;3.10;;;5.80;99.90;;;;;;5066305;28;20155;-70
2021/12/14 05:49:39;;;;;;;2.25;2.05;;;5.90;99.90;;;;;;5065643;28;20186;-68
2021/12/14 05:52:21;;;;;;;2.92;2.30;;;5.90;99.90;;;;;;5065518;28;20208;-68
2021/12/14 05:54:48;;;;;;;3.65;3.38;;;5.90;99.90;;;;;;5065721;28;20216;-70
2021/12/14 05:57:20;;;;;;;4.68;3.30;;;5.90;99.90;;;;;;5065450;28;20167;-70
2021/12/14 05:59:47;;;;;;;6.35;3.58;;;5.80;99.90;;;;;;5065808;28;20154;-70
2021/12/14 06:02:14;;;;;;;2.08;1.98;;;5.70;99.90;;;;;;5066318;28;20245;-73
2021/12/14 06:04:43;;;;;;;3.63;1.98;;;5.70;99.90;;;;;;5067065;28;20203;-69
2021/12/14 06:07:10;;;;;;;9.27;2.67;;;5.60;99.90;;;;;;5066817;28;20168;-70
2021/12/14 06:09:39;;;;;;;5.63;2.40;;;5.60;99.90;;;;;;5067074;28;20170;-68
2021/12/14 06:12:13;;;;;;;6.97;2.28;;;5.60;99.90;;;;;;5066937;28;20232;-73
2021/12/14 06:14:50;;;;;;;2.90;2.53;;;5.60;99.90;;;;;;5067013;28;20266;-69
2021/12/14 06:17:22;;;;;;;4.13;3.72;;;5.50;99.90;;;;;;5066789;28;20164;-71
2021/12/14 06:19:58;;;;;;;3.33;2.97;;;5.60;99.90;;;;;;5067045;28;20157;-69
2021/12/14 06:22:25;;;;;;;5.90;2.10;;;5.60;99.90;;;;;;5066872;28;20165;-65
2021/12/14 06:24:54;;;;;;;4.93;2.45;;;5.60;99.90;;;;;;5066786;28;20186;-69
2021/12/14 06:27:22;;;;;;;2.83;1.98;;;5.50;99.90;;;;;;5065958;28;20429;-72
2021/12/14 06:30:05;;;;;;;4.20;2.90;;;5.50;99.90;;;;;;5066915;28;20317;-71
2021/12/14 06:32:39;;;;;;;3.33;2.03;;;5.50;99.90;;;;;;5066902;28;20198;-69
2021/12/14 06:35:16;;;;;;;2.40;2.13;;;5.50;99.90;;;;;;5066810;28;20228;-71
2021/12/14 06:40:58;;;;;;;2.22;1.77;;;5.50;99.90;;;;;;5066830;28;20288;-72
2021/12/14 06:43:42;;;;;;;2.75;2.20;;;5.40;99.90;;;;;;5066558;28;20177;-70
2021/12/14 06:46:12;;;;;;;3.53;2.60;;;5.40;99.90;;;;;;5066637;28;20232;-71
2021/12/14 06:48:51;;;;;;;3.85;3.55;;;5.40;99.90;;;;;;5066362;28;20358;-71
2021/12/14 06:51:23;;;;;;;2.80;2.17;;;5.40;99.90;;;;;;5066645;28;20169;-69
2021/12/14 06:53:57;;;;;;;6.00;2.83;;;5.30;99.90;;;;;;5066495;28;20235;-70
2021/12/14 06:56:26;;;;;;;2.85;2.67;;;5.30;99.90;;;;;;5066328;28;20257;-69
2021/12/14 06:58:56;;;;;;;7.10;4.15;;;5.30;99.90;;;;;;5066538;28;20325;-71
2021/12/14 07:01:26;;;;;;;5.57;2.17;;;5.30;99.90;;;;;;5048937;28;20163;-70
2021/12/14 07:04:05;;;;;;;2.55;1.65;;;5.30;99.90;;;;;;5066229;28;20202;-70
2021/12/14 07:06:49;;;;;;;2.05;1.95;;;5.30;99.90;;;;;;5066125;28;20154;-70
2021/12/14 07:09:40;;;;;;;4.40;2.45;;;5.30;99.90;;;;;;5066325;28;20241;-69
2021/12/14 07:12:18;;;;;;;5.35;2.45;;;5.30;99.90;;;;;;5059194;28;20173;-71
2021/12/14 07:14:53;;;;;;;4.05;2.50;;;5.30;99.90;;;;;;5048628;28;20201;-71
2021/12/14 07:17:27;;;;;;;3.83;2.47;;;5.20;99.90;;;;;;5066180;28;20226;-73
2021/12/14 07:20:15;;;;;;;4.22;3.92;;;5.20;99.90;;;;;;5048758;28;20315;-71
2021/12/14 07:22:44;;;;;;;3.10;2.28;;;5.20;99.90;;;;;;5048766;28;20170;-71
2021/12/14 07:25:15;;;;;;;4.55;2.55;;;5.10;99.90;;;;;;5079211;28;20173;-70
2021/12/14 07:27:46;;;;;;;3.75;2.72;;;5.10;99.90;;;;;;5086116;28;20162;-71
2021/12/14 07:30:33;;;;;;;3.85;3.33;;;5.20;99.90;;;;;;5086276;28;20169;-72
2021/12/14 07:32:59;;;;;;;2.85;2.05;;;5.10;99.90;;;;;;5086192;28;20236;-70
2021/12/14 07:35:53;;;;;;;3.87;2.97;;;5.00;99.90;;;;;;5086269;28;20169;-72
2021/12/14 07:38:23;;;;;;;3.53;2.33;;;5.10;99.90;;;;;;5065425;28;20181;-70
2021/12/14 07:40:54;;;;;;;7.35;3.22;;;5.10;99.90;;;;;;5089902;28;20169;-71
2021/12/14 07:43:22;;;;;;;4.28;2.40;;;5.10;99.90;;;;;;5092527;28;20190;-70
2021/12/14 07:45:51;;;;;;;2.13;1.88;;;5.10;99.90;;;;;;5094353;28;20260;-70
2021/12/14 07:48:18;;;;;;;2.10;1.90;;;5.10;99.90;;;;;;5093044;28;20172;-70
2021/12/14 07:50:53;;;;;;;2.30;2.13;;;5.10;99.90;;;;;;5093028;28;20176;-69
2021/12/14 07:53:37;;;;;;;2.20;2.00;;;5.10;99.90;;;;;;5092425;28;20246;-71
2021/12/14 07:56:03;;;;;;;6.57;3.10;;;5.10;99.90;;;;;;5093365;28;20180;-71
2021/12/14 07:58:41;;;;;;;4.70;2.92;;;5.20;99.90;;;;;;5090172;28;20262;-72
2021/12/14 08:01:08;;;;;;;4.13;3.72;;;5.20;99.90;;;;;;5072075;28;20300;-70
2021/12/14 08:03:35;;;;;;;2.22;2.03;;;5.30;99.90;;;;;;5071681;28;20202;-73
2021/12/14 08:06:06;;;;;;;3.85;2.97;;;5.30;99.90;;;;;;5089504;28;20165;-70
2021/12/14 08:08:42;;;;;;;15.23;4.10;;;5.30;99.90;;;;;;5072211;28;20159;-72
2021/12/14 08:11:46;;;;;;;4.35;3.85;;;5.30;99.90;;;;;;5089271;28;20165;-71
2021/12/14 08:14:17;;;;;;;4.07;3.45;;;5.40;99.90;;;;;;5071631;28;20355;-71
2021/12/14 08:17:04;;;;;;;2.53;2.05;;;5.40;99.90;;;;;;5088970;28;20158;-70
2021/12/14 08:19:33;;;;;;;4.57;2.67;;;5.40;99.90;;;;;;5088523;28;20185;-71
2021/12/14 08:22:03;;;;;;;4.60;2.85;;;5.40;99.90;;;;;;5089182;28;20226;-70
2021/12/14 08:24:28;;;;;;;3.72;3.00;;;5.30;99.90;;;;;;5081688;28;20204;-70
2021/12/14 08:26:59;;;;;;;2.73;2.53;;;5.30;99.90;;;;;;5068969;28;20302;-70
2021/12/14 08:29:28;;;;;;;3.13;2.45;;;5.30;99.90;;;;;;5069042;28;20395;-72
2021/12/14 08:32:05;;;;;;;4.63;3.13;;;5.40;99.90;;;;;;5068678;28;20185;-72
2021/12/14 08:34:34;;;;;;;10.05;3.08;;;5.30;99.90;;;;;;5068721;28;20252;-71
2021/12/14 08:37:09;;;;;;;3.78;2.78;;;5.30;99.90;;;;;;5068357;28;20201;-72
2021/12/14 08:39:47;;;;;;;2.28;2.08;;;5.40;99.90;;;;;;5068707;28;20158;-70
2021/12/14 08:42:21;;;;;;;6.40;2.97;;;5.40;99.90;;;;;;5068694;28;20238;-71
2021/12/14 08:44:54;;;;;;;3.63;2.30;;;5.60;99.90;;;;;;5068649;28;20259;-70
2021/12/14 08:47:32;;;;;;;5.47;2.83;;;5.70;99.90;;;;;;5068409;28;20305;-70
2021/12/14 08:50:03;;;;;;;3.20;2.78;;;5.80;99.90;;;;;;5050324;28;20401;-70
2021/12/14 08:52:30;;;;;;;5.10;3.33;;;6.00;99.90;;;;;;5068344;28;20341;-72
2021/12/14 08:55:04;;;;;;;3.70;2.60;;;6.00;99.90;;;;;;5068390;28;20198;-71
2021/12/14 08:57:31;;;;;;;2.83;2.60;;;6.00;99.90;;;;;;5068222;28;20170;-72
2021/12/14 09:00:01;;;;;;;4.38;2.85;;;6.10;99.90;;;;;;5068341;28;20162;-71
2021/12/14 09:02:29;;;;;;;2.30;2.20;;;6.00;99.90;;;;;;5068180;28;20172;-71
2021/12/14 09:05:04;;;;;;;4.30;3.78;;;6.00;99.90;;;;;;5068017;28;20250;-71
2021/12/14 09:07:31;;;;;;;1.85;1.70;;;6.10;99.90;;;;;;5067822;28;20177;-72
2021/12/14 09:09:59;;;;;;;3.63;2.28;;;6.10;99.90;;;;;;5068358;28;20176;-71
2021/12/14 09:12:31;;;;;;;3.75;3.35;;;6.20;99.90;;;;;;5067936;28;20165;-70
2021/12/14 09:15:01;;;;;;;4.90;2.50;;;6.20;99.90;;;;;;5068018;28;20189;-72
2021/12/14 09:17:27;;;;;;;5.40;2.80;;;6.30;99.90;;;;;;5067729;28;20278;-70
2021/12/14 09:19:57;;;;;;;2.40;2.30;;;6.30;99.90;;;;;;5067985;28;20176;-70
2021/12/14 09:22:31;;;;;;;4.88;2.40;;;6.50;99.90;;;;;;5067772;28;20426;-72
2021/12/14 09:24:57;;;;;;;3.58;3.03;;;6.60;99.90;;;;;;5078916;28;20179;-70
2021/12/14 09:27:29;;;;;;;1.73;1.63;;;6.70;99.90;;;;;;5087497;28;20236;-72
2021/12/14 09:29:56;;;;;;;3.20;2.90;;;6.70;99.90;;;;;;5070258;28;20279;-70
2021/12/14 09:32:27;;;;;;;6.43;4.00;;;6.90;99.90;;;;;;5087840;28;20776;-71
2021/12/14 09:34:55;;;;;;;2.65;2.38;;;7.30;99.90;;;;;;5087919;28;20299;-70
2021/12/14 09:37:21;;;;;;;2.95;2.60;;;7.70;99.90;;;;;;5087223;28;20196;-71
2021/12/14 09:39:55;;;;;;;2.78;2.58;;;8.10;99.90;;;;;;5087603;28;20216;-70
2021/12/14 09:42:28;;;;;;;4.13;2.45;;;8.40;99.90;;;;;;5087590;28;20264;-71
2021/12/14 09:44:58;;;;;;;2.75;2.40;;;8.50;99.90;;;;;;5087457;28;20200;-72
2021/12/14 09:47:26;;;;;;;2.92;2.13;;;8.50;99.90;;;;;;5087238;28;20161;-70
2021/12/14 09:49:53;;;;;;;2.83;2.40;;;8.50;99.90;;;;;;5087365;28;20156;-71
2021/12/14 09:52:26;;;;;;;2.75;2.55;;;8.50;99.90;;;;;;5087270;28;20165;-72
2021/12/14 09:54:54;;;;;;;2.10;1.90;;;8.50;99.90;;;;;;5087261;28;20399;-71
2021/12/14 09:57:35;;;;;;;2.60;1.90;;;8.60;99.90;;;;;;5086939;28;20164;-72
2021/12/14 10:00:12;;;;;;;2.63;1.85;;;8.60;99.90;;;;;;5087246;28;20392;-72
2021/12/14 10:02:40;;;;;;;3.47;2.28;;;8.60;99.90;;;;;;5086271;28;20183;-71
2021/12/14 10:05:20;;;;;;;2.35;2.05;;;8.60;99.90;;;;;;5087106;28;20181;-72
2021/12/14 10:07:48;;;;;;;1.90;1.75;;;8.60;99.90;;;;;;5086947;28;20162;-71
2021/12/14 10:10:18;;;;;;;3.20;2.90;;;8.60;99.90;;;;;;5087149;28;20171;-72
2021/12/14 10:12:50;;;;;;;3.55;2.83;;;8.60;99.90;;;;;;5086961;28;20196;-72
2021/12/14 10:15:18;;;;;;;3.80;3.50;;;8.50;99.90;;;;;;5087136;28;20172;-73
2021/12/14 10:17:45;;;;;;;3.40;3.10;;;8.30;99.90;;;;;;5069206;28;20386;-72
2021/12/14 10:20:17;;;;;;;2.75;1.88;;;8.30;99.90;;;;;;5087077;28;20161;-72
2021/12/14 10:22:44;;;;;;;2.80;2.60;;;8.10;99.90;;;;;;5087441;28;20161;-71
2021/12/14 10:25:14;;;;;;;5.32;3.28;;;8.10;99.90;;;;;;5056426;28;20269;-71
2021/12/14 10:27:40;;;;;;;4.25;2.75;;;8.00;99.90;;;;;;5066584;28;20177;-72
2021/12/14 10:30:12;;;;;;;4.43;3.57;;;7.90;99.90;;;;;;5066852;28;20165;-71
2021/12/14 10:32:38;;;;;;;3.20;2.92;;;7.90;99.90;;;;;;5066630;28;20451;-72
2021/12/14 10:35:09;;;;;;;2.55;2.35;;;7.90;99.90;;;;;;5070250;28;20275;-73
2021/12/14 10:43:22;;;;;;;2.97;2.70;;;7.80;99.90;;;;;;5066845;28;20195;-71
2021/12/14 10:45:58;;;;;;;3.05;2.83;;;7.70;99.90;;;;;;5066592;28;20274;-71
2021/12/14 10:48:30;;;;;;;2.83;2.55;;;7.70;99.90;;;;;;5066412;28;20172;-72
2021/12/14 10:51:00;;;;;;;10.95;3.75;;;7.70;99.90;;;;;;5066703;28;20157;-72
2021/12/14 10:53:27;;;;;;;4.18;3.15;;;7.80;99.90;;;;;;5066361;28;20243;-72
2021/12/14 10:55:59;;;;;;;3.75;3.45;;;8.00;99.90;;;;;;5066519;28;20289;-72
2021/12/14 10:58:27;;;;;;;3.97;3.63;;;8.20;99.90;;;;;;5066171;28;20180;-72
2021/12/14 11:01:04;;;;;;;4.22;2.75;;;8.30;99.90;;;;;;5066829;28;20165;-71
2021/12/14 11:03:35;;;;;;;4.97;3.80;;;8.40;99.90;;;;;;5066351;28;20199;-70
2021/12/14 11:06:10;;;;;;;3.60;3.30;;;8.30;99.90;;;;;;5066434;28;20165;-69
2021/12/14 11:08:58;;;;;;;4.88;4.15;;;8.20;99.90;;;;;;5066402;28;20377;-71
2021/12/14 11:11:46;;;;;;;6.43;3.42;;;8.10;99.90;;;;;;5066597;28;20172;-70
2021/12/14 11:14:15;;;;;;;3.75;3.47;;;8.20;99.90;;;;;;5051826;28;20224;-70
2021/12/14 11:19:38;;;;;;;4.20;3.00;;;8.20;99.90;;;;;;5070536;28;20223;-69
2021/12/14 11:22:18;;;;;;;3.35;2.78;;;8.20;99.90;;;;;;5070362;28;20157;-72
2021/12/14 11:24:47;;;;;;;5.05;4.47;;;8.20;99.90;;;;;;5079292;28;20216;-70
2021/12/14 11:27:19;;;;;;;4.15;2.50;;;8.20;99.90;;;;;;5089919;28;20157;-71
2021/12/14 11:29:49;;;;;;;5.35;3.40;;;8.30;99.90;;;;;;5090078;28;20319;-71
2021/12/14 11:32:23;;;;;;;3.70;3.35;;;8.30;99.90;;;;;;5090028;28;20164;-72
2021/12/14 11:34:49;;;;;;;5.70;4.13;;;8.40;99.90;;;;;;5089886;28;20197;-70
2021/12/14 11:37:22;;;;;;;4.80;3.47;;;8.30;99.90;;;;;;5089663;28;20310;-72
2021/12/14 11:39:53;;;;;;;4.80;3.63;;;8.30;99.90;;;;;;5089932;28;20252;-70
2021/12/14 11:42:19;;;;;;;3.92;3.40;;;8.30;99.90;;;;;;5089813;28;20417;-73
2021/12/14 11:44:50;;;;;;;4.20;3.20;;;8.40;99.90;;;;;;5089824;28;20184;-70
2021/12/14 11:47:52;;;;;;;6.18;4.25;;;8.40;99.90;;;;;;5089551;28;20242;-73
2021/12/14 11:50:40;;;;;;;3.95;3.65;;;8.50;99.90;;;;;;4989481;28;20267;-73
2021/12/14 11:53:05;;;;;;;4.88;4.47;;;8.60;99.90;;;;;;5085032;28;20325;-71
2021/12/14 11:55:40;;;;;;;4.80;3.33;;;8.60;99.90;;;;;;5089734;28;20182;-72
2021/12/14 11:58:18;;;;;;;5.53;4.22;;;8.70;99.90;;;;;;5071753;28;20233;-70
2021/12/14 12:00:49;;;;;;;4.32;3.92;;;8.80;99.90;;;;;;5089582;28;20175;-72
2021/12/14 12:03:38;;;;;;;5.78;5.22;;;8.80;99.90;;;;;;5089304;28;20203;-70
2021/12/14 12:06:10;;;;;;;4.53;3.47;;;8.80;99.90;;;;;;5089442;28;20176;-70
2021/12/14 12:11:35;;;;;;;5.63;3.70;;;8.80;99.90;;;;;;5089461;28;20163;-71
2021/12/14 12:14:14;;;;;;;4.40;3.78;;;8.80;99.90;;;;;;5089211;28;20206;-71
2021/12/14 12:16:40;;;;;;;4.78;4.38;;;8.70;99.90;;;;;;5089045;28;20250;-71
2021/12/14 12:19:20;;;;;;;4.97;4.50;;;8.60;99.90;;;;;;5089211;28;20232;-70
2021/12/14 12:21:49;;;;;;;4.38;3.00;;;8.50;99.90;;;;;;5089145;28;20163;-72
2021/12/14 12:24:48;;;;;;;3.35;3.08;;;8.50;99.90;;;;;;5083040;28;20252;-72
2021/12/14 12:27:36;;;;;;;4.47;4.05;;;8.50;99.90;;;;;;5036048;28;20181;-71
2021/12/14 12:30:10;;;;;;;4.40;4.10;;;8.40;99.90;;;;;;5068988;28;20165;-72
2021/12/14 12:32:36;;;;;;;5.30;4.60;;;8.40;99.90;;;;;;5068433;28;20185;-70
2021/12/14 12:35:27;;;;;;;3.67;3.30;;;8.20;99.90;;;;;;5049812;28;20206;-71
2021/12/14 12:37:55;;;;;;;5.20;4.63;;;8.20;99.90;;;;;;5068193;28;20262;-71
2021/12/14 12:40:47;;;;;;;5.10;4.60;;;8.10;99.90;;;;;;5068375;28;20181;-70
2021/12/14 12:43:26;;;;;;;5.38;4.57;;;8.20;99.90;;;;;;5051532;28;20287;-69
2021/12/14 12:46:06;;;;;;;5.90;5.30;;;8.30;99.90;;;;;;5068383;28;20184;-69
2021/12/14 12:48:54;;;;;;;10.93;3.70;;;8.30;99.90;;;;;;5068316;28;20162;-70
2021/12/14 12:51:39;;;;;;;5.88;5.05;;;8.20;99.90;;;;;;5068497;28;20196;-72
2021/12/14 12:54:17;;;;;;;5.90;4.10;;;8.20;99.90;;;;;;5072529;28;20275;-68
2021/12/14 12:56:47;;;;;;;6.75;4.53;;;8.10;99.90;;;;;;5070580;28;20172;-70
2021/12/14 12:59:16;;;;;;;7.03;4.78;;;8.00;99.90;;;;;;5088350;28;20160;-70
2021/12/14 13:01:42;;;;;;;6.47;4.70;;;8.10;99.90;;;;;;5088397;28;20183;-69
2021/12/14 13:04:07;;;;;;;5.30;4.63;;;8.20;99.90;;;;;;5087473;28;20204;-70
2021/12/14 13:06:33;;;;;;;5.93;5.13;;;8.20;99.90;;;;;;5050708;28;20339;-69
2021/12/14 13:09:00;;;;;;;5.50;4.93;;;8.20;99.90;;;;;;5068114;28;20173;-73
2021/12/14 13:11:39;;;;;;;6.78;3.90;;;8.20;99.90;;;;;;5068230;28;20185;-70
2021/12/14 13:14:13;;;;;;;7.68;5.18;;;8.20;99.90;;;;;;5050911;28;20217;-69
2021/12/14 13:16:44;;;;;;;5.15;4.43;;;8.20;99.90;;;;;;5050047;28;20332;-70
2021/12/14 13:19:13;;;;;;;5.80;3.95;;;8.20;99.90;;;;;;5067738;28;20180;-70
2021/12/14 13:21:57;;;;;;;6.03;4.60;;;8.20;99.90;;;;;;5067694;28;20178;-70
2021/12/14 13:24:30;;;;;;;7.07;4.90;;;8.10;99.90;;;;;;5074333;28;20195;-71
2021/12/14 13:27:12;;;;;;;4.07;3.25;;;8.10;99.90;;;;;;5087513;28;20247;-70
2021/12/14 13:29:51;;;;;;;5.22;4.07;;;8.00;99.90;;;;;;5087402;28;20277;-70
2021/12/14 13:32:19;;;;;;;3.70;3.40;;;8.00;99.90;;;;;;5087610;28;20165;-71
2021/12/14 13:34:58;;;;;;;6.15;4.53;;;8.00;99.90;;;;;;5087435;28;20184;-71
2021/12/14 13:37:36;;;;;;;6.00;5.05;;;8.10;99.90;;;;;;5086979;28;20160;-70
2021/12/14 13:40:09;;;;;;;5.20;4.00;;;8.10;99.90;;;;;;5087497;28;20190;-73
2021/12/14 13:42:46;;;;;;;7.03;5.63;;;8.10;99.90;;;;;;5087416;28;20164;-71
2021/12/14 13:45:17;;;;;;;6.10;5.30;;;8.00;99.90;;;;;;5069803;28;20172;-71
2021/12/14 13:47:44;;;;;;;5.10;4.22;;;8.00;99.90;;;;;;5087107;28;20172;-72
2021/12/14 13:50:15;;;;;;;7.57;5.10;;;8.00;99.90;;;;;;5087246;28;20434;-73
2021/12/14 13:52:41;;;;;;;10.98;5.95;;;8.00;99.90;;;;;;5087056;28;20196;-70
2021/12/14 13:55:15;;;;;;;5.17;4.70;;;8.00;99.90;;;;;;5087181;28;20179;-72
2021/12/14 13:57:52;;;;;;;4.10;3.50;;;8.00;99.90;;;;;;5086641;28;20489;-72
2021/12/14 14:00:25;;;;;;;6.65;4.90;;;8.00;99.90;;;;;;5086984;28;20308;-71